N750XP FYWH-FHSH
Flight info
| Callsign | N750XP |
|---|---|
| Flight time | N/A |
| Altitude | 40000 |
| Route | VEDRY UN182 APGEK/N0487F430 UN182 ETUDU DCT 21S010E 1930S00500E 18S000E DCT CB207 DCT SH |
| Aircraft | C750/M-SBDE3FGHRWXY/S |
Departure
| Time | 2026-04-17 15:14 |
|---|---|
| Airport | Hosea Kutako International Airport (FYWH) |
Arrival
| Time | N/A |
|---|---|
| Airport | Saint Helena International Airport (FHSH) |
| Time | Latitude | Longitude | Altitude | Speed | Heading |
|---|---|---|---|---|---|
| 2026-04-17 15:06 | -22.48695 | 17.46056 | 5649 ft | 0 kts | 292° |
| 2026-04-17 15:10 | -22.48691 | 17.46046 | 5649 ft | 6 kts | 296° |
| 2026-04-17 15:10 | -22.48639 | 17.46007 | 5649 ft | 12 kts | 343° |
| 2026-04-17 15:11 | -22.48520 | 17.46207 | 5649 ft | 19 kts | 67° |
| 2026-04-17 15:11 | -22.48466 | 17.46331 | 5649 ft | 17 kts | 61° |
| 2026-04-17 15:11 | -22.48400 | 17.46474 | 5649 ft | 22 kts | 65° |
| 2026-04-17 15:11 | -22.48329 | 17.46627 | 5649 ft | 22 kts | 59° |
| 2026-04-17 15:12 | -22.48261 | 17.46773 | 5648 ft | 21 kts | 64° |
| 2026-04-17 15:12 | -22.48166 | 17.46978 | 5648 ft | 34 kts | 65° |
| 2026-04-17 15:12 | -22.48058 | 17.47199 | 5648 ft | 32 kts | 55° |
| 2026-04-17 15:12 | -22.47967 | 17.47412 | 5648 ft | 30 kts | 62° |
| 2026-04-17 15:13 | -22.47880 | 17.47616 | 5647 ft | 28 kts | 71° |
| 2026-04-17 15:13 | -22.47790 | 17.47799 | 5647 ft | 27 kts | 64° |
| 2026-04-17 15:13 | -22.47671 | 17.47907 | 5647 ft | 23 kts | 336° |
| 2026-04-17 15:13 | -22.47679 | 17.47761 | 5647 ft | 37 kts | 246° |
| 2026-04-17 15:14 | -22.47929 | 17.47210 | 5648 ft | 122 kts | 243° |
| 2026-04-17 15:14 | -22.48416 | 17.46175 | 5715 ft | 179 kts | 251° |
| 2026-04-17 15:14 | -22.48499 | 17.44844 | 6075 ft | 199 kts | 293° |
| 2026-04-17 15:14 | -22.47670 | 17.43558 | 6628 ft | 223 kts | 305° |
| 2026-04-17 15:15 | -22.47094 | 17.42039 | 7888 ft | 222 kts | 288° |
| 2026-04-17 15:15 | -22.46735 | 17.40470 | 8995 ft | 224 kts | 285° |
| 2026-04-17 15:15 | -22.46429 | 17.38816 | 9872 ft | 235 kts | 283° |
| 2026-04-17 15:15 | -22.46133 | 17.37018 | 10654 ft | 250 kts | 282° |
| 2026-04-17 15:16 | -22.45828 | 17.35123 | 11391 ft | 265 kts | 282° |
| 2026-04-17 15:16 | -22.45505 | 17.33116 | 12089 ft | 280 kts | 283° |
| 2026-04-17 15:16 | -22.45167 | 17.30999 | 12690 ft | 297 kts | 283° |
| 2026-04-17 15:16 | -22.44806 | 17.28756 | 13380 ft | 309 kts | 283° |
| 2026-04-17 15:17 | -22.44437 | 17.26442 | 14211 ft | 314 kts | 283° |
| 2026-04-17 15:17 | -22.44067 | 17.24142 | 15066 ft | 317 kts | 282° |
| 2026-04-17 15:17 | -22.43687 | 17.21784 | 15854 ft | 320 kts | 282° |
| 2026-04-17 15:17 | -22.43310 | 17.19439 | 16603 ft | 324 kts | 282° |
| 2026-04-17 15:18 | -22.42922 | 17.17018 | 17291 ft | 329 kts | 282° |
| 2026-04-17 15:18 | -22.42528 | 17.14582 | 17962 ft | 334 kts | 281° |
| 2026-04-17 15:18 | -22.42127 | 17.12102 | 18695 ft | 336 kts | 281° |
| 2026-04-17 15:18 | -22.41728 | 17.09628 | 19341 ft | 340 kts | 281° |
| 2026-04-17 15:19 | -22.41318 | 17.07097 | 19995 ft | 343 kts | 280° |
| 2026-04-17 15:19 | -22.40910 | 17.04566 | 20612 ft | 346 kts | 280° |
| 2026-04-17 15:19 | -22.40495 | 17.02003 | 21234 ft | 349 kts | 279° |
| 2026-04-17 15:19 | -22.40078 | 16.99429 | 21830 ft | 352 kts | 279° |
| 2026-04-17 15:20 | -22.39651 | 16.96795 | 22385 ft | 355 kts | 279° |
| 2026-04-17 15:20 | -22.39226 | 16.94196 | 22974 ft | 357 kts | 279° |
| 2026-04-17 15:20 | -22.38796 | 16.91547 | 23599 ft | 358 kts | 279° |
| 2026-04-17 15:20 | -22.38367 | 16.88900 | 24155 ft | 360 kts | 279° |
| 2026-04-17 15:21 | -22.37932 | 16.86241 | 24709 ft | 361 kts | 279° |
| 2026-04-17 15:21 | -22.37499 | 16.83572 | 25313 ft | 360 kts | 279° |
| 2026-04-17 15:21 | -22.37063 | 16.80922 | 25799 ft | 362 kts | 279° |
| 2026-04-17 15:21 | -22.36625 | 16.78242 | 26295 ft | 363 kts | 279° |
| 2026-04-17 15:22 | -22.36188 | 16.75561 | 26723 ft | 366 kts | 279° |
| 2026-04-17 15:22 | -22.35748 | 16.72871 | 27204 ft | 366 kts | 279° |
| 2026-04-17 15:22 | -22.35305 | 16.70171 | 27675 ft | 367 kts | 279° |
| 2026-04-17 15:22 | -22.34857 | 16.67444 | 28071 ft | 369 kts | 279° |
| 2026-04-17 15:23 | -22.34409 | 16.64730 | 28497 ft | 369 kts | 280° |
| 2026-04-17 15:23 | -22.33959 | 16.61980 | 28890 ft | 371 kts | 280° |
| 2026-04-17 15:23 | -22.33510 | 16.59260 | 29263 ft | 372 kts | 280° |
| 2026-04-17 15:23 | -22.33069 | 16.56494 | 29622 ft | 374 kts | 279° |
| 2026-04-17 15:24 | -22.32628 | 16.53741 | 29942 ft | 376 kts | 279° |
| 2026-04-17 15:24 | -22.32183 | 16.50978 | 30272 ft | 377 kts | 280° |
| 2026-04-17 15:24 | -22.31734 | 16.48172 | 30639 ft | 378 kts | 280° |
| 2026-04-17 15:24 | -22.31286 | 16.45376 | 30965 ft | 379 kts | 280° |
| 2026-04-17 15:25 | -22.30831 | 16.42556 | 31242 ft | 381 kts | 280° |
| 2026-04-17 15:25 | -22.30377 | 16.39726 | 31553 ft | 382 kts | 280° |
| 2026-04-17 15:25 | -22.29922 | 16.36921 | 31844 ft | 383 kts | 280° |
| 2026-04-17 15:25 | -22.29465 | 16.34079 | 32106 ft | 385 kts | 280° |
| 2026-04-17 15:26 | -22.28997 | 16.31206 | 32339 ft | 387 kts | 281° |
| 2026-04-17 15:26 | -22.28540 | 16.28359 | 32634 ft | 388 kts | 281° |
| 2026-04-17 15:26 | -22.28075 | 16.25491 | 32909 ft | 389 kts | 281° |
| 2026-04-17 15:26 | -22.27608 | 16.22602 | 33147 ft | 391 kts | 281° |
| 2026-04-17 15:27 | -22.27135 | 16.19708 | 33370 ft | 393 kts | 281° |
| 2026-04-17 15:27 | -22.26664 | 16.16808 | 33608 ft | 395 kts | 280° |
| 2026-04-17 15:27 | -22.26191 | 16.13893 | 33804 ft | 397 kts | 280° |
| 2026-04-17 15:27 | -22.25708 | 16.10928 | 34042 ft | 399 kts | 280° |
| 2026-04-17 15:28 | -22.25224 | 16.07966 | 34355 ft | 398 kts | 280° |
| 2026-04-17 15:28 | -22.24748 | 16.05050 | 34622 ft | 399 kts | 280° |
| 2026-04-17 15:28 | -22.24266 | 16.02113 | 35024 ft | 400 kts | 280° |
| 2026-04-17 15:28 | -22.23781 | 15.99138 | 35638 ft | 399 kts | 280° |
| 2026-04-17 15:29 | -22.23299 | 15.96226 | 36341 ft | 397 kts | 279° |
| 2026-04-17 15:29 | -22.22820 | 15.93294 | 36939 ft | 396 kts | 279° |
| 2026-04-17 15:29 | -22.22342 | 15.90390 | 37557 ft | 394 kts | 279° |
| 2026-04-17 15:29 | -22.21868 | 15.87501 | 38022 ft | 395 kts | 279° |
| 2026-04-17 15:30 | -22.21385 | 15.84555 | 38507 ft | 396 kts | 278° |
| 2026-04-17 15:30 | -22.20905 | 15.81652 | 39007 ft | 395 kts | 278° |
| 2026-04-17 15:30 | -22.20430 | 15.78758 | 39627 ft | 393 kts | 279° |
| 2026-04-17 15:30 | -22.19954 | 15.75867 | 40009 ft | 395 kts | 278° |
| 2026-04-17 15:31 | -22.19462 | 15.72898 | 40001 ft | 404 kts | 278° |
| 2026-04-17 15:31 | -22.18456 | 15.66808 | 40002 ft | 422 kts | 279° |
| 2026-04-17 15:32 | -22.17402 | 15.60482 | 39991 ft | 438 kts | 278° |
| 2026-04-17 15:32 | -22.16309 | 15.53898 | 39991 ft | 454 kts | 279° |
| 2026-04-17 15:33 | -22.15181 | 15.47175 | 39985 ft | 462 kts | 278° |
| 2026-04-17 15:33 | -22.14040 | 15.40331 | 39983 ft | 465 kts | 278° |
| 2026-04-17 15:34 | -22.12887 | 15.33461 | 39984 ft | 466 kts | 278° |
| 2026-04-17 15:34 | -22.11732 | 15.26604 | 39990 ft | 467 kts | 279° |
| 2026-04-17 15:35 | -22.10571 | 15.19702 | 39961 ft | 467 kts | 278° |
| 2026-04-17 15:35 | -22.09407 | 15.12840 | 39969 ft | 467 kts | 278° |
| 2026-04-17 15:36 | -22.08243 | 15.05971 | 39967 ft | 467 kts | 278° |
| 2026-04-17 15:36 | -22.07078 | 14.99139 | 39954 ft | 467 kts | 278° |
| 2026-04-17 15:37 | -22.05902 | 14.92250 | 39956 ft | 466 kts | 278° |
| 2026-04-17 15:37 | -22.04737 | 14.85407 | 39935 ft | 467 kts | 278° |
| 2026-04-17 15:38 | -22.03560 | 14.78530 | 39946 ft | 467 kts | 278° |
| 2026-04-17 15:38 | -22.02381 | 14.71673 | 39933 ft | 467 kts | 278° |
| 2026-04-17 15:39 | -22.01203 | 14.64833 | 39912 ft | 466 kts | 278° |
| 2026-04-17 15:39 | -22.00022 | 14.57985 | 39930 ft | 466 kts | 278° |
| 2026-04-17 15:40 | -21.98837 | 14.51160 | 39916 ft | 464 kts | 278° |
| 2026-04-17 15:40 | -21.97658 | 14.44348 | 39912 ft | 464 kts | 278° |
| 2026-04-17 15:41 | -21.96469 | 14.37547 | 39924 ft | 463 kts | 277° |
| 2026-04-17 15:41 | -21.95277 | 14.30714 | 39924 ft | 463 kts | 278° |
| 2026-04-17 15:42 | -21.94088 | 14.23925 | 39914 ft | 463 kts | 278° |
| 2026-04-17 15:42 | -21.92897 | 14.17164 | 39917 ft | 462 kts | 278° |
| 2026-04-17 15:43 | -21.91697 | 14.10377 | 39934 ft | 462 kts | 277° |
| 2026-04-17 15:43 | -21.90496 | 14.03601 | 39928 ft | 461 kts | 277° |
| 2026-04-17 15:44 | -21.89298 | 13.96832 | 39898 ft | 461 kts | 277° |
| 2026-04-17 15:44 | -21.88088 | 13.90043 | 39981 ft | 459 kts | 277° |
| 2026-04-17 15:44 | -21.87497 | 13.86727 | 40353 ft | 455 kts | 277° |
| 2026-04-17 15:45 | -21.86907 | 13.83410 | 40661 ft | 453 kts | 277° |
| 2026-04-17 15:45 | -21.86314 | 13.80083 | 40974 ft | 451 kts | 277° |
| 2026-04-17 15:45 | -21.85724 | 13.76800 | 41287 ft | 450 kts | 278° |
| 2026-04-17 15:45 | -21.85134 | 13.73492 | 41602 ft | 448 kts | 278° |
| 2026-04-17 15:46 | -21.84549 | 13.70225 | 41912 ft | 447 kts | 277° |
| 2026-04-17 15:46 | -21.83958 | 13.66940 | 42229 ft | 446 kts | 278° |
| 2026-04-17 15:46 | -21.83371 | 13.63689 | 42536 ft | 445 kts | 278° |
| 2026-04-17 15:46 | -21.82785 | 13.60410 | 42852 ft | 444 kts | 278° |
| 2026-04-17 15:47 | -21.82200 | 13.57165 | 42886 ft | 447 kts | 278° |
| 2026-04-17 15:47 | -21.81009 | 13.50569 | 42918 ft | 449 kts | 278° |
| 2026-04-17 15:48 | -21.79819 | 13.44008 | 42941 ft | 450 kts | 278° |
| 2026-04-17 15:48 | -21.78622 | 13.37399 | 42926 ft | 450 kts | 278° |
| 2026-04-17 15:49 | -21.77419 | 13.30791 | 42942 ft | 451 kts | 278° |
| 2026-04-17 15:49 | -21.76216 | 13.24191 | 42944 ft | 450 kts | 278° |
| 2026-04-17 15:50 | -21.75017 | 13.17624 | 42931 ft | 449 kts | 278° |
| 2026-04-17 15:50 | -21.73815 | 13.11044 | 42945 ft | 449 kts | 278° |
| 2026-04-17 15:51 | -21.72614 | 13.04494 | 42941 ft | 448 kts | 278° |
| 2026-04-17 15:51 | -21.71409 | 12.97945 | 42936 ft | 448 kts | 278° |
| 2026-04-17 15:52 | -21.70199 | 12.91388 | 42920 ft | 449 kts | 278° |
| 2026-04-17 15:52 | -21.68985 | 12.84794 | 42948 ft | 449 kts | 278° |
| 2026-04-17 15:53 | -21.67771 | 12.78243 | 42939 ft | 449 kts | 277° |
| 2026-04-17 15:53 | -21.66542 | 12.71693 | 42927 ft | 449 kts | 280° |
| 2026-04-17 15:54 | -21.64994 | 12.65189 | 42931 ft | 449 kts | 281° |
| 2026-04-17 15:54 | -21.63457 | 12.58698 | 42942 ft | 448 kts | 281° |
| 2026-04-17 15:55 | -21.61922 | 12.52224 | 42922 ft | 450 kts | 280° |
| 2026-04-17 15:55 | -21.60382 | 12.45722 | 42932 ft | 449 kts | 280° |
| 2026-04-17 15:56 | -21.58848 | 12.39266 | 42930 ft | 449 kts | 280° |
| 2026-04-17 15:56 | -21.57305 | 12.32789 | 42934 ft | 449 kts | 281° |
| 2026-04-17 15:57 | -21.55754 | 12.26286 | 42948 ft | 450 kts | 281° |
| 2026-04-17 15:57 | -21.54199 | 12.19783 | 42940 ft | 450 kts | 281° |
| 2026-04-17 15:58 | -21.52636 | 12.13268 | 42939 ft | 451 kts | 281° |
| 2026-04-17 15:58 | -21.51080 | 12.06780 | 42954 ft | 451 kts | 281° |
| 2026-04-17 15:59 | -21.49527 | 12.00293 | 42942 ft | 450 kts | 281° |
| 2026-04-17 15:59 | -21.47956 | 11.93794 | 42951 ft | 450 kts | 281° |
| 2026-04-17 16:00 | -21.46403 | 11.87336 | 42943 ft | 449 kts | 281° |
| 2026-04-17 16:00 | -21.44834 | 11.80849 | 42947 ft | 448 kts | 281° |
| 2026-04-17 16:01 | -21.43267 | 11.74377 | 42940 ft | 448 kts | 280° |
| 2026-04-17 16:01 | -21.41701 | 11.67929 | 42942 ft | 449 kts | 280° |
| 2026-04-17 16:02 | -21.40134 | 11.61479 | 42925 ft | 448 kts | 281° |
| 2026-04-17 16:02 | -21.38562 | 11.55031 | 42924 ft | 447 kts | 281° |
| 2026-04-17 16:03 | -21.36996 | 11.48603 | 42938 ft | 447 kts | 281° |
| 2026-04-17 16:03 | -21.35421 | 11.42142 | 42932 ft | 448 kts | 280° |
| 2026-04-17 16:04 | -21.33855 | 11.35733 | 42934 ft | 448 kts | 281° |
| 2026-04-17 16:04 | -21.32268 | 11.29274 | 42943 ft | 448 kts | 281° |
| 2026-04-17 16:05 | -21.30686 | 11.22818 | 42942 ft | 448 kts | 281° |
| 2026-04-17 16:05 | -21.29094 | 11.16366 | 42939 ft | 448 kts | 281° |
| 2026-04-17 16:06 | -21.27505 | 11.09926 | 42941 ft | 448 kts | 281° |
| 2026-04-17 16:06 | -21.25917 | 11.03479 | 42930 ft | 448 kts | 281° |
| 2026-04-17 16:07 | -21.24321 | 10.97033 | 42936 ft | 449 kts | 281° |
| 2026-04-17 16:07 | -21.22735 | 10.90604 | 42935 ft | 447 kts | 281° |
| 2026-04-17 16:08 | -21.21133 | 10.84161 | 42936 ft | 448 kts | 281° |
| 2026-04-17 16:08 | -21.19539 | 10.77760 | 42942 ft | 448 kts | 281° |
| 2026-04-17 16:09 | -21.17929 | 10.71283 | 42935 ft | 448 kts | 281° |
| 2026-04-17 16:09 | -21.16333 | 10.64902 | 42914 ft | 448 kts | 281° |
| 2026-04-17 16:10 | -21.14725 | 10.58454 | 42927 ft | 448 kts | 281° |
| 2026-04-17 16:10 | -21.13115 | 10.52023 | 42940 ft | 448 kts | 281° |
| 2026-04-17 16:11 | -21.11490 | 10.45549 | 42931 ft | 448 kts | 281° |
| 2026-04-17 16:11 | -21.09883 | 10.39142 | 42919 ft | 447 kts | 281° |
| 2026-04-17 16:12 | -21.08264 | 10.32698 | 42958 ft | 447 kts | 282° |
| 2026-04-17 16:12 | -21.06648 | 10.26307 | 42949 ft | 448 kts | 281° |
| 2026-04-17 16:13 | -21.05021 | 10.19833 | 42932 ft | 449 kts | 281° |
| 2026-04-17 16:13 | -21.03391 | 10.13409 | 42954 ft | 447 kts | 281° |
| 2026-04-17 16:14 | -21.00959 | 10.03806 | 42950 ft | 448 kts | 281° |
| 2026-04-17 16:14 | -20.99259 | 9.97392 | 42944 ft | 449 kts | 283° |
| 2026-04-17 16:15 | -20.97451 | 9.91025 | 42949 ft | 449 kts | 283° |
| 2026-04-17 16:15 | -20.95644 | 9.84671 | 42940 ft | 449 kts | 283° |
| 2026-04-17 16:16 | -20.93833 | 9.78277 | 42945 ft | 448 kts | 283° |
| 2026-04-17 16:16 | -20.92029 | 9.71943 | 42958 ft | 449 kts | 283° |
| 2026-04-17 16:17 | -20.90200 | 9.65535 | 42937 ft | 449 kts | 283° |
| 2026-04-17 16:17 | -20.88392 | 9.59177 | 42930 ft | 449 kts | 283° |
| 2026-04-17 16:18 | -20.86566 | 9.52815 | 42939 ft | 448 kts | 283° |
| 2026-04-17 16:18 | -20.84750 | 9.46473 | 42941 ft | 449 kts | 283° |
| 2026-04-17 16:19 | -20.82930 | 9.40125 | 42925 ft | 449 kts | 283° |
| 2026-04-17 16:19 | -20.81099 | 9.33757 | 42951 ft | 449 kts | 283° |
| 2026-04-17 16:20 | -20.79271 | 9.27391 | 42953 ft | 449 kts | 283° |
| 2026-04-17 16:20 | -20.77428 | 9.21005 | 42944 ft | 449 kts | 283° |
| 2026-04-17 16:21 | -20.75606 | 9.14675 | 42945 ft | 449 kts | 283° |
| 2026-04-17 16:21 | -20.73755 | 9.08290 | 42946 ft | 449 kts | 283° |
| 2026-04-17 16:22 | -20.71919 | 9.01931 | 42936 ft | 449 kts | 283° |
| 2026-04-17 16:22 | -20.70081 | 8.95600 | 42955 ft | 449 kts | 283° |
| 2026-04-17 16:23 | -20.68233 | 8.89231 | 42937 ft | 449 kts | 283° |
| 2026-04-17 16:23 | -20.66392 | 8.82900 | 42934 ft | 449 kts | 283° |
| 2026-04-17 16:24 | -20.64541 | 8.76536 | 42947 ft | 450 kts | 283° |
| 2026-04-17 16:24 | -20.62687 | 8.70178 | 42934 ft | 449 kts | 283° |
| 2026-04-17 16:25 | -20.60836 | 8.63848 | 42936 ft | 449 kts | 283° |
| 2026-04-17 16:25 | -20.58973 | 8.57461 | 42951 ft | 449 kts | 283° |
| 2026-04-17 16:26 | -20.57124 | 8.51163 | 42942 ft | 449 kts | 283° |
| 2026-04-17 16:26 | -20.55267 | 8.44826 | 42947 ft | 449 kts | 283° |
| 2026-04-17 16:27 | -20.53398 | 8.38471 | 42947 ft | 448 kts | 283° |
| 2026-04-17 16:27 | -20.51539 | 8.32148 | 42956 ft | 449 kts | 283° |
| 2026-04-17 16:28 | -20.49666 | 8.25793 | 42945 ft | 450 kts | 283° |
| 2026-04-17 16:28 | -20.47805 | 8.19481 | 42942 ft | 449 kts | 283° |
| 2026-04-17 16:29 | -20.45926 | 8.13114 | 42955 ft | 449 kts | 283° |
| 2026-04-17 16:29 | -20.44054 | 8.06793 | 42940 ft | 450 kts | 283° |
| 2026-04-17 16:30 | -20.42177 | 8.00460 | 42939 ft | 450 kts | 283° |
| 2026-04-17 16:30 | -20.40289 | 7.94109 | 42942 ft | 450 kts | 283° |
| 2026-04-17 16:31 | -20.38406 | 7.87773 | 42928 ft | 450 kts | 283° |
| 2026-04-17 16:31 | -20.36522 | 7.81430 | 42960 ft | 450 kts | 283° |
| 2026-04-17 16:32 | -20.34623 | 7.75076 | 43056 ft | 446 kts | 284° |
| 2026-04-17 16:32 | -20.33677 | 7.71925 | 42824 ft | 450 kts | 283° |
| 2026-04-17 16:32 | -20.32740 | 7.68759 | 42948 ft | 450 kts | 283° |
| 2026-04-17 16:33 | -20.30851 | 7.62441 | 42890 ft | 450 kts | 283° |
| 2026-04-17 16:33 | -20.28943 | 7.56072 | 42990 ft | 450 kts | 284° |
| 2026-04-17 16:34 | -20.27049 | 7.49749 | 42925 ft | 450 kts | 283° |
| 2026-04-17 16:34 | -20.25137 | 7.43392 | 42939 ft | 450 kts | 283° |
| 2026-04-17 16:35 | -20.23237 | 7.37073 | 42949 ft | 451 kts | 283° |
| 2026-04-17 16:35 | -20.21330 | 7.30731 | 42940 ft | 451 kts | 284° |
| 2026-04-17 16:36 | -20.19416 | 7.24388 | 42965 ft | 451 kts | 284° |
| 2026-04-17 16:36 | -20.17497 | 7.18034 | 42957 ft | 452 kts | 284° |
| 2026-04-17 16:37 | -20.15577 | 7.11687 | 42940 ft | 452 kts | 284° |
| 2026-04-17 16:37 | -20.13650 | 7.05330 | 42959 ft | 452 kts | 284° |
| 2026-04-17 16:38 | -20.11718 | 6.98953 | 42949 ft | 452 kts | 284° |
| 2026-04-17 16:38 | -20.09798 | 6.92627 | 42936 ft | 452 kts | 284° |
| 2026-04-17 16:39 | -20.07863 | 6.86268 | 42955 ft | 452 kts | 284° |
| 2026-04-17 16:39 | -20.05915 | 6.79874 | 42950 ft | 454 kts | 284° |
| 2026-04-17 16:40 | -20.03986 | 6.73548 | 42940 ft | 453 kts | 284° |
| 2026-04-17 16:40 | -20.02035 | 6.67164 | 42940 ft | 454 kts | 284° |
| 2026-04-17 16:41 | -20.00086 | 6.60794 | 42938 ft | 454 kts | 284° |
| 2026-04-17 16:41 | -19.98130 | 6.54408 | 42937 ft | 454 kts | 284° |
| 2026-04-17 16:42 | -19.96184 | 6.48065 | 42934 ft | 453 kts | 284° |
| 2026-04-17 16:42 | -19.94230 | 6.41697 | 42945 ft | 453 kts | 284° |
| 2026-04-17 16:43 | -19.92283 | 6.35380 | 42934 ft | 454 kts | 284° |
| 2026-04-17 16:43 | -19.90321 | 6.29005 | 42945 ft | 455 kts | 284° |
| 2026-04-17 16:44 | -19.88355 | 6.22635 | 42959 ft | 454 kts | 284° |
| 2026-04-17 16:44 | -19.86382 | 6.16247 | 42950 ft | 455 kts | 284° |
| 2026-04-17 16:45 | -19.84420 | 6.09904 | 42937 ft | 455 kts | 284° |
| 2026-04-17 16:45 | -19.82437 | 6.03507 | 42952 ft | 455 kts | 284° |
| 2026-04-17 16:46 | -19.80474 | 5.97166 | 42942 ft | 454 kts | 284° |
| 2026-04-17 16:46 | -19.78492 | 5.90801 | 42944 ft | 455 kts | 284° |
| 2026-04-17 16:47 | -19.76515 | 5.84437 | 42947 ft | 454 kts | 284° |
| 2026-04-17 16:47 | -19.74537 | 5.78089 | 42952 ft | 454 kts | 284° |
| 2026-04-17 16:48 | -19.72562 | 5.71748 | 42956 ft | 455 kts | 284° |
| 2026-04-17 16:48 | -19.70575 | 5.65385 | 42958 ft | 455 kts | 284° |
| 2026-04-17 16:49 | -19.68580 | 5.59014 | 42951 ft | 456 kts | 284° |
| 2026-04-17 16:49 | -19.66580 | 5.52628 | 42952 ft | 456 kts | 284° |
| 2026-04-17 16:50 | -19.64598 | 5.46309 | 42955 ft | 455 kts | 285° |
| 2026-04-17 16:50 | -19.62592 | 5.39926 | 42944 ft | 456 kts | 284° |
| 2026-04-17 16:51 | -19.60586 | 5.33554 | 42958 ft | 456 kts | 285° |
| 2026-04-17 16:51 | -19.58590 | 5.27206 | 42975 ft | 457 kts | 285° |
| 2026-04-17 16:52 | -19.56577 | 5.20835 | 42966 ft | 457 kts | 285° |
| 2026-04-17 16:52 | -19.54560 | 5.14441 | 42963 ft | 457 kts | 285° |
| 2026-04-17 16:53 | -19.52543 | 5.08059 | 42958 ft | 457 kts | 285° |
| 2026-04-17 16:53 | -19.50524 | 5.01696 | 42972 ft | 456 kts | 285° |
| 2026-04-17 16:54 | -19.48659 | 4.95317 | 42959 ft | 456 kts | 283° |
| 2026-04-17 16:54 | -19.46826 | 4.88875 | 42956 ft | 456 kts | 283° |
| 2026-04-17 16:55 | -19.44991 | 4.82444 | 42956 ft | 456 kts | 284° |
| 2026-04-17 16:55 | -19.43171 | 4.76061 | 42944 ft | 456 kts | 283° |
| 2026-04-17 16:56 | -19.41339 | 4.69650 | 42955 ft | 456 kts | 283° |
| 2026-04-17 16:56 | -19.39506 | 4.63239 | 42948 ft | 457 kts | 283° |
| 2026-04-17 16:57 | -19.37656 | 4.56781 | 42948 ft | 457 kts | 283° |
| 2026-04-17 16:57 | -19.35825 | 4.50399 | 42948 ft | 457 kts | 283° |
| 2026-04-17 16:58 | -19.33983 | 4.43985 | 42955 ft | 456 kts | 283° |
| 2026-04-17 16:58 | -19.32127 | 4.37540 | 42946 ft | 457 kts | 283° |
| 2026-04-17 16:59 | -19.30281 | 4.31142 | 42969 ft | 457 kts | 284° |
| 2026-04-17 16:59 | -19.28426 | 4.24719 | 42961 ft | 458 kts | 284° |
| 2026-04-17 17:00 | -19.26571 | 4.18278 | 42974 ft | 458 kts | 284° |
| 2026-04-17 17:00 | -19.24707 | 4.11853 | 42951 ft | 459 kts | 284° |
| 2026-04-17 17:01 | -19.22836 | 4.05395 | 42955 ft | 459 kts | 284° |
| 2026-04-17 17:01 | -19.20974 | 3.98992 | 42963 ft | 458 kts | 284° |
| 2026-04-17 17:02 | -19.19108 | 3.92562 | 42932 ft | 459 kts | 284° |
| 2026-04-17 17:02 | -19.17236 | 3.86135 | 42962 ft | 459 kts | 284° |
| 2026-04-17 17:03 | -19.15357 | 3.79680 | 42943 ft | 459 kts | 284° |
| 2026-04-17 17:03 | -19.13481 | 3.73260 | 42948 ft | 458 kts | 284° |
| 2026-04-17 17:04 | -19.11599 | 3.66822 | 42957 ft | 458 kts | 284° |
| 2026-04-17 17:04 | -19.09709 | 3.60374 | 42941 ft | 458 kts | 284° |
| 2026-04-17 17:05 | -19.07834 | 3.53973 | 42961 ft | 459 kts | 284° |
| 2026-04-17 17:05 | -19.05964 | 3.47611 | 42942 ft | 459 kts | 284° |
| 2026-04-17 17:06 | -19.04067 | 3.41149 | 42956 ft | 459 kts | 284° |
| 2026-04-17 17:06 | -19.02171 | 3.34703 | 42944 ft | 459 kts | 284° |
| 2026-04-17 17:07 | -19.00281 | 3.28303 | 42952 ft | 460 kts | 284° |
| 2026-04-17 17:07 | -18.98398 | 3.21925 | 42952 ft | 460 kts | 284° |
| 2026-04-17 17:08 | -18.96506 | 3.15521 | 42949 ft | 460 kts | 284° |
| 2026-04-17 17:08 | -18.94605 | 3.09106 | 42944 ft | 461 kts | 284° |
| 2026-04-17 17:09 | -18.92689 | 3.02656 | 42926 ft | 461 kts | 285° |
| 2026-04-17 17:09 | -18.90785 | 2.96228 | 42977 ft | 461 kts | 284° |
| 2026-04-17 17:10 | -18.88876 | 2.89800 | 42930 ft | 461 kts | 284° |
| 2026-04-17 17:10 | -18.86956 | 2.83352 | 42952 ft | 461 kts | 284° |
| 2026-04-17 17:11 | -18.85028 | 2.76885 | 42944 ft | 461 kts | 284° |
| 2026-04-17 17:11 | -18.83110 | 2.70468 | 42944 ft | 461 kts | 284° |
| 2026-04-17 17:12 | -18.81184 | 2.64023 | 42955 ft | 461 kts | 284° |
| 2026-04-17 17:12 | -18.79262 | 2.57605 | 42952 ft | 461 kts | 284° |
| 2026-04-17 17:13 | -18.77340 | 2.51193 | 42962 ft | 461 kts | 284° |
| 2026-04-17 17:13 | -18.75405 | 2.44727 | 42980 ft | 459 kts | 284° |
| 2026-04-17 17:14 | -18.73485 | 2.38346 | 42949 ft | 460 kts | 284° |
| 2026-04-17 17:15 | -18.70579 | 2.28706 | 42973 ft | 460 kts | 285° |
| 2026-04-17 17:15 | -18.68649 | 2.22310 | 42983 ft | 460 kts | 285° |
| 2026-04-17 17:16 | -18.66707 | 2.15876 | 42541 ft | 467 kts | 285° |
| 2026-04-17 17:16 | -18.65955 | 2.12608 | 39169 ft | 467 kts | 256° |
| 2026-04-17 17:16 | -18.66256 | 2.09651 | 39201 ft | 409 kts | 295° |
| 2026-04-17 17:16 | -18.65044 | 2.08347 | 47504 ft | 256 kts | 309° |
| 2026-04-17 17:17 | -18.63840 | 2.07166 | 47036 ft | 270 kts | 294° |
| 2026-04-17 17:17 | -18.63209 | 2.05163 | 43427 ft | 335 kts | 276° |
| 2026-04-17 17:17 | -18.62684 | 2.02743 | 43363 ft | 345 kts | 283° |
| 2026-04-17 17:17 | -18.61954 | 2.00241 | 42958 ft | 363 kts | 284° |
| 2026-04-17 17:18 | -18.61191 | 1.97680 | 42936 ft | 374 kts | 284° |
| 2026-04-17 17:18 | -18.59582 | 1.92352 | 42976 ft | 394 kts | 284° |
| 2026-04-17 17:19 | -18.57861 | 1.86690 | 42963 ft | 414 kts | 284° |
| 2026-04-17 17:19 | -18.56079 | 1.80837 | 42969 ft | 432 kts | 284° |
| 2026-04-17 17:20 | -18.54209 | 1.74687 | 42961 ft | 449 kts | 285° |
| 2026-04-17 17:20 | -18.52272 | 1.68354 | 42960 ft | 458 kts | 285° |
| 2026-04-17 17:21 | -18.50323 | 1.61973 | 42958 ft | 460 kts | 284° |
| 2026-04-17 17:21 | -18.48374 | 1.55590 | 42959 ft | 461 kts | 285° |
| 2026-04-17 17:22 | -18.46406 | 1.49173 | 42960 ft | 460 kts | 285° |
| 2026-04-17 17:22 | -18.44448 | 1.42787 | 42945 ft | 460 kts | 285° |
| 2026-04-17 17:23 | -18.42487 | 1.36403 | 42970 ft | 460 kts | 285° |
| 2026-04-17 17:23 | -18.40515 | 1.29993 | 42961 ft | 461 kts | 285° |
| 2026-04-17 17:24 | -18.38534 | 1.23552 | 42970 ft | 462 kts | 285° |
| 2026-04-17 17:24 | -18.36564 | 1.17161 | 42966 ft | 462 kts | 285° |
| 2026-04-17 17:25 | -18.34584 | 1.10745 | 42969 ft | 462 kts | 285° |
| 2026-04-17 17:25 | -18.32607 | 1.04361 | 42965 ft | 461 kts | 285° |
| 2026-04-17 17:26 | -18.30634 | 0.97976 | 42964 ft | 461 kts | 285° |
| 2026-04-17 17:26 | -18.28645 | 0.91558 | 42967 ft | 461 kts | 285° |
| 2026-04-17 17:27 | -18.26655 | 0.85148 | 42955 ft | 462 kts | 285° |
| 2026-04-17 17:27 | -18.24663 | 0.78735 | 42968 ft | 462 kts | 285° |
| 2026-04-17 17:28 | -18.22659 | 0.72294 | 42954 ft | 463 kts | 285° |
| 2026-04-17 17:28 | -18.20660 | 0.65883 | 42965 ft | 463 kts | 285° |
| 2026-04-17 17:29 | -18.18654 | 0.59446 | 42954 ft | 463 kts | 285° |
| 2026-04-17 17:29 | -18.16649 | 0.53030 | 42963 ft | 463 kts | 285° |
| 2026-04-17 17:30 | -18.14652 | 0.46647 | 42954 ft | 463 kts | 285° |
| 2026-04-17 17:30 | -18.12646 | 0.40241 | 42956 ft | 462 kts | 285° |
| 2026-04-17 17:31 | -18.10647 | 0.33865 | 42952 ft | 463 kts | 285° |
| 2026-04-17 17:31 | -18.08641 | 0.27477 | 42978 ft | 463 kts | 285° |
| 2026-04-17 17:32 | -18.06628 | 0.21067 | 42952 ft | 464 kts | 285° |
| 2026-04-17 17:32 | -18.04604 | 0.14635 | 42975 ft | 463 kts | 285° |
| 2026-04-17 17:33 | -18.02591 | 0.08248 | 42957 ft | 464 kts | 285° |
| 2026-04-17 17:33 | -18.00558 | 0.01807 | 42968 ft | 463 kts | 285° |
| 2026-04-17 17:34 | -17.98410 | -0.04541 | 42959 ft | 465 kts | 287° |
| 2026-04-17 17:34 | -17.96191 | -0.10931 | 42965 ft | 464 kts | 287° |
| 2026-04-17 17:35 | -17.93996 | -0.17249 | 42966 ft | 464 kts | 287° |
| 2026-04-17 17:35 | -17.91772 | -0.23641 | 42963 ft | 465 kts | 287° |
| 2026-04-17 17:36 | -17.89559 | -0.29981 | 42954 ft | 465 kts | 287° |
| 2026-04-17 17:36 | -17.87336 | -0.36344 | 42951 ft | 465 kts | 287° |
| 2026-04-17 17:37 | -17.85123 | -0.42686 | 42937 ft | 466 kts | 287° |
| 2026-04-17 17:37 | -17.82890 | -0.49076 | 42931 ft | 466 kts | 287° |
| 2026-04-17 17:38 | -17.80714 | -0.55287 | 42940 ft | 465 kts | 287° |
| 2026-04-17 17:38 | -17.78505 | -0.61590 | 42935 ft | 466 kts | 287° |
| 2026-04-17 17:39 | -17.76281 | -0.67925 | 42944 ft | 466 kts | 288° |
| 2026-04-17 17:39 | -17.74044 | -0.74274 | 42939 ft | 466 kts | 287° |
| 2026-04-17 17:40 | -17.71806 | -0.80648 | 42938 ft | 466 kts | 288° |
| 2026-04-17 17:40 | -17.69556 | -0.87035 | 42938 ft | 466 kts | 287° |
| 2026-04-17 17:41 | -17.67310 | -0.93404 | 42939 ft | 467 kts | 287° |
| 2026-04-17 17:41 | -17.65076 | -0.99732 | 42950 ft | 466 kts | 288° |
| 2026-04-17 17:42 | -17.62829 | -1.06096 | 42941 ft | 466 kts | 287° |
| 2026-04-17 17:42 | -17.60575 | -1.12461 | 42946 ft | 467 kts | 287° |
| 2026-04-17 17:43 | -17.58320 | -1.18825 | 42943 ft | 467 kts | 288° |
| 2026-04-17 17:43 | -17.56064 | -1.25183 | 42957 ft | 467 kts | 287° |
| 2026-04-17 17:44 | -17.53801 | -1.31559 | 42939 ft | 466 kts | 287° |
| 2026-04-17 17:44 | -17.51547 | -1.37891 | 42945 ft | 466 kts | 287° |
| 2026-04-17 17:45 | -17.49291 | -1.44241 | 42939 ft | 467 kts | 288° |
| 2026-04-17 17:45 | -17.47012 | -1.50627 | 42955 ft | 467 kts | 287° |
| 2026-04-17 17:46 | -17.44743 | -1.56991 | 42944 ft | 468 kts | 288° |
| 2026-04-17 17:46 | -17.42486 | -1.63323 | 42947 ft | 467 kts | 288° |
| 2026-04-17 17:47 | -17.40202 | -1.69695 | 42946 ft | 467 kts | 288° |
| 2026-04-17 17:47 | -17.37931 | -1.76045 | 42963 ft | 467 kts | 288° |
| 2026-04-17 17:48 | -17.35643 | -1.82423 | 42957 ft | 468 kts | 288° |
| 2026-04-17 17:48 | -17.33366 | -1.88776 | 42959 ft | 468 kts | 288° |
| 2026-04-17 17:49 | -17.31081 | -1.95138 | 42957 ft | 468 kts | 288° |
| 2026-04-17 17:49 | -17.28792 | -2.01499 | 42944 ft | 469 kts | 288° |
| 2026-04-17 17:50 | -17.26507 | -2.07852 | 42954 ft | 469 kts | 288° |
| 2026-04-17 17:50 | -17.24198 | -2.14259 | 42950 ft | 469 kts | 288° |
| 2026-04-17 17:51 | -17.21911 | -2.20595 | 42935 ft | 469 kts | 288° |
| 2026-04-17 17:51 | -17.19611 | -2.26961 | 42947 ft | 469 kts | 288° |
| 2026-04-17 17:52 | -17.17323 | -2.33294 | 42942 ft | 469 kts | 288° |
| 2026-04-17 17:52 | -17.15015 | -2.39673 | 42941 ft | 469 kts | 288° |
| 2026-04-17 17:53 | -17.12709 | -2.46030 | 42940 ft | 469 kts | 288° |
| 2026-04-17 17:53 | -17.10393 | -2.52417 | 42947 ft | 469 kts | 288° |
| 2026-04-17 17:54 | -17.08083 | -2.58771 | 42931 ft | 470 kts | 288° |
| 2026-04-17 17:54 | -17.05781 | -2.65107 | 42937 ft | 470 kts | 288° |
| 2026-04-17 17:55 | -17.03459 | -2.71492 | 42948 ft | 470 kts | 289° |
| 2026-04-17 17:55 | -17.01128 | -2.77883 | 42956 ft | 470 kts | 289° |
| 2026-04-17 17:56 | -16.98807 | -2.84249 | 42935 ft | 471 kts | 288° |
| 2026-04-17 17:56 | -16.96478 | -2.90629 | 42950 ft | 471 kts | 288° |
| 2026-04-17 17:57 | -16.94141 | -2.97014 | 42940 ft | 471 kts | 289° |
| 2026-04-17 17:57 | -16.91819 | -3.03360 | 42948 ft | 470 kts | 289° |
| 2026-04-17 17:58 | -16.89485 | -3.09728 | 42940 ft | 470 kts | 288° |
| 2026-04-17 17:58 | -16.87152 | -3.16090 | 42937 ft | 470 kts | 289° |
| 2026-04-17 17:59 | -16.84820 | -3.22446 | 42936 ft | 469 kts | 289° |
| 2026-04-17 17:59 | -16.82497 | -3.28757 | 42939 ft | 469 kts | 289° |
| 2026-04-17 18:00 | -16.80168 | -3.35086 | 42967 ft | 453 kts | 288° |
| 2026-04-17 18:00 | -16.79079 | -3.38031 | 42898 ft | 422 kts | 288° |
| 2026-04-17 18:00 | -16.78057 | -3.40814 | 42902 ft | 393 kts | 288° |
| 2026-04-17 18:00 | -16.77109 | -3.43379 | 42895 ft | 366 kts | 288° |
| 2026-04-17 18:01 | -16.76956 | -3.43791 | 42889 ft | 362 kts | 288° |
| 2026-04-17 18:01 | -16.76120 | -3.46054 | 42768 ft | 343 kts | 288° |
| 2026-04-17 18:01 | -16.75589 | -3.47494 | 42964 ft | 326 kts | 288° |
| 2026-04-17 18:02 | -16.74675 | -3.49979 | 42872 ft | 303 kts | 288° |
| 2026-04-17 18:02 | -16.73933 | -3.51977 | 42832 ft | 283 kts | 287° |
| 2026-04-17 18:02 | -16.73259 | -3.53797 | 42884 ft | 260 kts | 287° |
| 2026-04-17 18:02 | -16.72634 | -3.55496 | 42813 ft | 240 kts | 287° |
| 2026-04-17 18:03 | -16.72005 | -3.57028 | 42606 ft | 225 kts | 292° |
| 2026-04-17 18:03 | -16.71192 | -3.58422 | 41726 ft | 232 kts | 301° |
| 2026-04-17 18:03 | -16.70058 | -3.59678 | 40487 ft | 249 kts | 313° |
| 2026-04-17 18:03 | -16.68558 | -3.60649 | 39786 ft | 256 kts | 328° |
| 2026-04-17 18:04 | -16.66835 | -3.61129 | 39349 ft | 261 kts | 344° |
| 2026-04-17 18:04 | -16.64973 | -3.61083 | 38603 ft | 277 kts | 0° |
| 2026-04-17 18:04 | -16.63052 | -3.60490 | 37795 ft | 295 kts | 16° |
| 2026-04-17 18:04 | -16.61150 | -3.59937 | 36994 ft | 283 kts | 354° |
| 2026-04-17 18:05 | -16.59221 | -3.59623 | 36716 ft | 276 kts | 9° |
| 2026-04-17 18:05 | -16.57398 | -3.59127 | 35907 ft | 271 kts | 349° |
| 2026-04-17 18:05 | -16.55475 | -3.59232 | 34287 ft | 296 kts | 346° |
| 2026-04-17 18:05 | -16.53489 | -3.59734 | 32849 ft | 295 kts | 320° |
| 2026-04-17 18:06 | -16.52116 | -3.61125 | 32086 ft | 270 kts | 289° |
| 2026-04-17 18:06 | -16.51748 | -3.62936 | 31745 ft | 248 kts | 263° |
| 2026-04-17 18:06 | -16.51986 | -3.64682 | 31049 ft | 252 kts | 261° |
| 2026-04-17 18:06 | -16.52261 | -3.66464 | 30776 ft | 235 kts | 264° |
| 2026-04-17 18:07 | -16.52525 | -3.68149 | 29773 ft | 256 kts | 262° |
| 2026-04-17 18:07 | -16.52788 | -3.69965 | 29125 ft | 252 kts | 267° |
| 2026-04-17 18:07 | -16.53014 | -3.71826 | 28020 ft | 270 kts | 274° |
| 2026-04-17 18:07 | -16.53071 | -3.73766 | 27319 ft | 270 kts | 271° |
| 2026-04-17 18:08 | -16.52962 | -3.75681 | 26708 ft | 267 kts | 277° |
| 2026-04-17 18:08 | -16.52665 | -3.77604 | 25965 ft | 268 kts | 283° |
| 2026-04-17 18:08 | -16.52291 | -3.79506 | 24992 ft | 279 kts | 281° |
| 2026-04-17 18:08 | -16.51627 | -3.81447 | 23964 ft | 284 kts | 295° |
| 2026-04-17 18:09 | -16.50821 | -3.83207 | 23546 ft | 274 kts | 282° |
| 2026-04-17 18:09 | -16.51616 | -3.83553 | 18964 ft | 361 kts | 75° |
| 2026-04-17 18:09 | -16.50891 | -3.84194 | 12618 ft | 432 kts | 267° |
| 2026-04-17 18:09 | -16.51130 | -3.84101 | 16496 ft | 194 kts | 139° |
| 2026-04-17 18:10 | -16.50840 | -3.84352 | 10572 ft | 380 kts | 317° |
| 2026-04-17 18:10 | -16.49038 | -3.85305 | 11401 ft | 268 kts | 11° |
| 2026-04-17 18:10 | -16.49999 | -3.85954 | 6663 ft | 344 kts | 154° |
| 2026-04-17 18:10 | -16.49312 | -3.85500 | 3800 ft | 355 kts | 274° |
| 2026-04-17 18:11 | -16.50213 | -3.85154 | 704 ft | 324 kts | 58° |
| 2026-04-17 18:11 | -16.49388 | -3.84860 | 0 ft | 6 kts | 318° |
| 2026-04-17 18:11 | -16.49369 | -3.84878 | -1 ft | 3 kts | 316° |